LGAVLGHI

Guest
Details From LGAV - Athens Intl Airport Elefterios Venizel
To LGHI - Chios
Flight Number -
Tags decoded
Created
Modified
Stats Distance 114 nm / 211 km
Max Altitude 0 ft / 0 m
Waypoints 7
Social Downloads 0
Likes 0
Share VATSIM

Download

Looking for another format? Having issues loading an existing format? Contact us
Advertisement - Login to hide

Notes

Requested: LGAV KEPIR UN604 OLIDA UG802 KERMA LGHI

Route

LGAV KEPIR UN604 OLIDA UG802 KERMA LGHI

ID Type Via Altitude Latitude Longitude Leg Dist Tot Dist Heading (true) Name
O LGAV APT - 0 ft / 0 m 37.93636˚ 23.94447˚ - 0 nm - Athens Intl Airport Elefterios Venizel
KEPIR FIX - 0 ft / 0 m 38.16861˚ 24.65722˚ 36 nm 36 nm 67° / 68° -
OLIDA FIX UN604 (AWY-HI) 0 ft / 0 m 38.41833˚ 24.89111˚ 18 nm 55 nm 36° / 36° -
PIVOS FIX UG802 (AWY-HI) 0 ft / 0 m 38.37472˚ 25.75028˚ 40 nm 95 nm 93° / 94° -
NEMIS FIX UG802 (AWY-HI) 0 ft / 0 m 38.37306˚ 25.78778˚ 1 nm 97 nm 93° / 93° -
KERMA FIX UG802 (AWY-HI) 0 ft / 0 m 38.36861˚ 25.86000˚ 3 nm 100 nm 94° / 95° -
O LGHI APT - 0 ft / 0 m 38.34318˚ 26.14058˚ 13 nm 114 nm 97° / 97° Chios

Altitude Profile

Advertisement - Login to hide

LGAV

Details ICAO LGAV (ATH)
Name Athens Intl Airport Elefterios Venizel
Region Greece
Timezone Europe/Athens (UTC+2.0)
Stats Elevation 308 ft / 94 m (AMSL)
Location 37.936357° 23.944470°
Runways 2
Magnetic Variation 4.484° E

METAR

LGAV 151520Z 21008KT CAVOK 14/07 Q1015 NOSIG

Decode

TAF

TAF TAF LGAV 151100Z 1512/1612 21010KT 9999 FEW025 BECMG 1606/1608 22020KT SCT020 SCT070

Decode

Departure Runways

ID Width Length Bearing (true) Bearing (mag) Surface Threshold Offset Overrun Length
03L 148 ft / 45 m 12,474 ft / 3,802 m 36.51° 32.03° Asphalt 984 ft / 300 m 393 ft / 120 m
03R 148 ft / 45 m 13,131 ft / 4,002 m 36.52° 32.04° Asphalt 984 ft / 300 m 393 ft / 120 m
21L 148 ft / 45 m 13,131 ft / 4,002 m 216.54° 212.06° Asphalt 984 ft / 300 m 393 ft / 120 m
21R 148 ft / 45 m 12,474 ft / 3,802 m 216.53° 212.05° Asphalt 984 ft / 300 m 393 ft / 120 m

LGHI

Details ICAO LGHI (JKH)
Name Chios
Region Greece
Timezone Europe/Athens (UTC+2.0)
Stats Elevation 18 ft / 5 m (AMSL)
Location 38.343175° 26.140575°
Runways 1
Magnetic Variation 4.788° E

METAR

LGHI 151450Z 21007KT 9999 FEW020 SCT035 16/11 Q1015

Decode

TAF

Not found

Destination Runways

ID Width Length Bearing (true) Bearing (mag) Surface Threshold Offset Overrun Length
01 98 ft / 30 m 4,966 ft / 1,514 m 9.51° 4.72° Asphalt 393 ft / 120 m 0 ft / 0 m
19 98 ft / 30 m 4,966 ft / 1,514 m 189.51° 184.72° Asphalt 262 ft / 80 m 0 ft / 0 m

Popular Alternatives